This is the latest recevied weather packets stored in our database for station/object SQ2WB-13. If no packets are shown the sender has not sent any weather packets the latest 1 day(s).
| Time | Temp. | Humidity | Pressure | Rain* | Wind** | Luminosity | Snow |
|---|---|---|---|---|---|---|---|
| 1778016601 | 10.56° C | 91% | 998.9 hPa | 0 mm | 0.89 m/s, 67° | - | - |
| 1778015701 | 11.67° C | 91% | 998.9 hPa | 0 mm | 0.45 m/s, 20° | - | - |
| 1778014801 | 11.67° C | 91% | 999.3 hPa | 0 mm | 0.45 m/s, 66° | - | - |
| 1778013902 | 11.67° C | 90% | 999.3 hPa | 0 mm | 0.45 m/s, 83° | - | - |
| 1778013001 | 11.67° C | 88% | 999.6 hPa | 0 mm | 0.45 m/s, 52° | - | - |
| 1778012167 | 11.67° C | 87% | 999.6 hPa | 0 mm | 0.45 m/s, 85° | - | - |
| 1778011203 | 12.78° C | 84% | 999.6 hPa | 0 mm | 0.89 m/s, 79° | - | - |
| 1778010301 | 12.78° C | 81% | 999.6 hPa | 0 mm | 1.34 m/s, 95° | - | - |
| 1778009401 | 12.78° C | 78% | 999.3 hPa | 0 mm | 0.89 m/s, 36° | - | - |
| 1778008501 | 12.78° C | 77% | 999.6 hPa | 0 mm | 0.45 m/s, 73° | - | - |
| 1778007601 | 12.78° C | 77% | 999.3 hPa | 0 mm | 0.45 m/s, 94° | - | - |
| 1778006701 | 13.89° C | 77% | 999.3 hPa | 0 mm | 1.34 m/s, 67° | - | - |
| 1778005802 | 13.89° C | 77% | 999.3 hPa | 0 mm | 0.45 m/s, 32° | - | - |
| 1778004901 | 13.89° C | 76% | 998.9 hPa | 0 mm | 1.34 m/s, 96° | - | - |
| 1778004001 | 13.89° C | 75% | 998.9 hPa | 0 mm | 0.45 m/s, 70° | - | - |
| 1778003101 | 13.89° C | 73% | 998.9 hPa | 0 mm | 0.89 m/s, 100° | - | - |
| 1778002201 | 15° C | 72% | 998.9 hPa | 0 mm | 0.89 m/s, 103° | - | - |
| 1778001302 | 15° C | 68% | 998.9 hPa | 0 mm | 1.34 m/s, 29° | - | - |
| 1778000401 | 15° C | 67% | 998.9 hPa | 0 mm | 0.89 m/s, 25° | - | - |
| 1777999501 | 15° C | 65% | 998.9 hPa | 0 mm | 2.24 m/s, 29° | - | - |
| 1777998601 | 15.56° C | 66% | 998.9 hPa | 0 mm | 1.79 m/s, 29° | - | - |
| 1777997703 | 15.56° C | 66% | 998.9 hPa | 0 mm | 2.24 m/s, 340° | - | - |
| 1777996800 | 16.67° C | 62% | 998.9 hPa | 0 mm | 4.47 m/s, 11° | - | - |
| 1777995901 | 17.78° C | 60% | 998.9 hPa | 0 mm | 1.79 m/s, 349° | - | - |
| 1777995002 | 18.89° C | 58% | 998.9 hPa | 0 mm | 2.68 m/s, 10° | - | - |
* Rain latest hour (hover to see other rain measurements)
** Current wind speed in m/s (hover to see current wind gust speed)